createdAt,value
2017-10-30T00:02:37.026Z,98563.36
2017-10-30T00:05:14.156Z,98572.20
2017-10-30T00:07:51.821Z,98583.63
2017-10-30T00:10:28.453Z,98582.91
2017-10-30T00:13:08.032Z,98581.64
2017-10-30T00:15:44.737Z,98590.82
2017-10-30T00:18:22.486Z,98604.48
2017-10-30T00:21:00.600Z,98602.73
2017-10-30T00:23:38.201Z,98609.26
2017-10-30T00:26:15.244Z,98600.25
2017-10-30T00:28:54.432Z,98631.39
2017-10-30T00:31:33.489Z,98624.02
2017-10-30T00:34:12.084Z,98595.83
2017-10-30T00:36:48.775Z,98622.16
2017-10-30T00:39:26.395Z,98671.72
2017-10-30T00:42:07.555Z,98672.27
2017-10-30T00:44:46.369Z,98679.52
2017-10-30T00:47:23.073Z,98696.22
2017-10-30T00:49:59.999Z,98692.56
2017-10-30T00:52:38.158Z,98718.02
2017-10-30T00:55:18.573Z,98695.11
2017-10-30T00:57:55.673Z,98734.71
2017-10-30T01:00:35.734Z,98733.00
2017-10-30T01:03:14.651Z,98726.69
2017-10-30T01:05:52.967Z,98746.44
2017-10-30T01:08:29.506Z,98768.03
2017-10-30T01:11:07.578Z,98776.15
2017-10-30T01:13:48.406Z,98777.58
2017-10-30T01:16:25.700Z,98786.48
2017-10-30T01:19:04.494Z,98794.13
2017-10-30T01:21:43.932Z,98792.95
2017-10-30T01:24:20.891Z,98784.37
2017-10-30T01:27:03.109Z,98791.89
2017-10-30T01:29:39.895Z,98774.74
2017-10-30T01:32:17.811Z,98787.66
2017-10-30T01:34:57.060Z,98788.38
2017-10-30T01:37:34.818Z,98799.81
2017-10-30T01:40:12.971Z,98807.27
2017-10-30T01:42:51.741Z,98814.56
2017-10-30T01:45:30.430Z,98820.53
2017-10-30T01:48:06.907Z,98825.88
2017-10-30T01:50:48.818Z,98827.78
2017-10-30T01:53:34.932Z,98838.89
2017-10-30T02:05:09.658Z,98834.58
2017-10-30T02:07:52.127Z,98838.12
2017-10-30T02:10:34.123Z,98860.55
2017-10-30T02:13:12.766Z,98848.17
2017-10-30T02:15:54.865Z,98852.38
2017-10-30T02:18:32.498Z,98853.58
2017-10-30T02:21:09.598Z,98868.69
2017-10-30T02:23:46.095Z,98858.37
2017-10-30T02:26:29.797Z,98881.67
2017-10-30T02:29:08.380Z,98898.83
2017-10-30T02:31:45.494Z,98905.76
2017-10-30T02:34:32.601Z,98902.83
2017-10-30T02:37:09.916Z,98893.09
2017-10-30T02:39:46.595Z,98887.62
2017-10-30T02:42:27.529Z,98876.00
2017-10-30T02:45:10.685Z,98873.44
2017-10-30T02:47:51.618Z,98878.34
2017-10-30T02:50:28.657Z,98880.44
2017-10-30T02:53:07.393Z,98898.42
2017-10-30T02:55:43.693Z,98904.81
2017-10-30T02:58:22.078Z,98913.02
2017-10-30T03:00:58.418Z,98917.29
2017-10-30T03:03:36.472Z,98933.97
2017-10-30T03:06:12.964Z,98943.79
2017-10-30T03:08:52.754Z,98952.11
2017-10-30T03:11:29.381Z,98947.94
2017-10-30T03:14:07.602Z,98940.45
2017-10-30T03:16:44.263Z,98944.06
2017-10-30T03:19:21.162Z,98951.87
2017-10-30T03:21:57.523Z,98951.95
2017-10-30T03:24:34.233Z,98958.60
2017-10-30T03:27:12.302Z,98980.52
2017-10-30T03:29:52.750Z,98999.16
2017-10-30T03:32:29.690Z,99002.12
2017-10-30T03:35:07.487Z,99017.84
2017-10-30T03:37:44.731Z,99015.36
2017-10-30T03:43:13.197Z,99030.22
2017-10-30T03:45:50.424Z,99019.56
2017-10-30T03:48:27.696Z,99029.91
2017-10-30T03:51:04.528Z,99019.03
2017-10-30T03:53:46.404Z,99013.98
2017-10-30T03:56:15.383Z,99022.06
2017-10-30T03:58:54.129Z,99028.45
2017-10-30T04:01:40.418Z,99029.89
2017-10-30T04:04:17.386Z,99029.49
2017-10-30T04:06:56.279Z,99029.38
2017-10-30T04:09:32.658Z,99014.58
2017-10-30T04:12:12.158Z,99026.45
2017-10-30T04:14:51.361Z,99018.00
2017-10-30T04:17:38.122Z,99031.49
2017-10-30T04:20:17.486Z,99015.83
2017-10-30T04:22:56.649Z,99022.09
2017-10-30T04:25:37.986Z,99008.98
2017-10-30T04:28:17.513Z,99011.52
2017-10-30T04:30:53.885Z,99001.83
2017-10-30T04:33:31.020Z,99009.87
2017-10-30T04:36:07.529Z,99052.98
2017-10-30T04:38:46.115Z,99043.63
2017-10-30T04:41:25.283Z,99026.88
2017-10-30T04:44:01.976Z,99026.45
2017-10-30T04:46:42.809Z,99034.14
2017-10-30T04:49:19.270Z,99047.59
2017-10-30T04:51:57.924Z,99037.05
2017-10-30T04:54:34.393Z,99045.16
2017-10-30T04:57:15.261Z,99028.54
2017-10-30T04:59:51.762Z,99031.08
2017-10-30T05:02:43.219Z,99037.31
2017-10-30T05:05:19.660Z,99032.66
2017-10-30T05:07:58.337Z,99057.16
2017-10-30T05:10:37.131Z,99066.43
2017-10-30T05:13:16.432Z,99068.95
2017-10-30T05:16:01.843Z,99078.67
2017-10-30T05:18:38.293Z,99098.51
2017-10-30T05:21:20.562Z,99084.23
2017-10-30T05:23:56.817Z,99084.56
2017-10-30T05:26:42.641Z,99093.37
2017-10-30T05:29:21.225Z,99109.41
2017-10-30T05:31:59.209Z,99105.06
2017-10-30T05:34:35.794Z,99126.66
2017-10-30T05:37:12.839Z,99143.94
2017-10-30T05:39:49.147Z,99157.93
2017-10-30T05:42:26.193Z,99143.94
2017-10-30T05:45:04.861Z,99182.80
2017-10-30T05:47:42.194Z,99148.11
2017-10-30T05:50:19.309Z,99168.75
2017-10-30T05:52:58.289Z,99159.47
2017-10-30T05:55:27.195Z,99175.56
2017-10-30T05:58:06.094Z,99174.08
2017-10-30T06:00:42.522Z,99177.43
2017-10-30T06:03:19.379Z,99170.84
2017-10-30T06:05:56.493Z,99194.52
2017-10-30T06:08:35.472Z,99180.80
2017-10-30T06:11:14.322Z,99168.46
2017-10-30T06:16:33.123Z,99212.55
2017-10-30T06:19:09.675Z,99263.21
2017-10-30T06:21:47.668Z,99260.95
2017-10-30T06:24:24.283Z,99280.78
2017-10-30T06:27:03.217Z,99309.22
2017-10-30T06:29:40.036Z,99303.53
2017-10-30T06:32:17.410Z,99316.06
2017-10-30T06:34:54.418Z,99331.94
2017-10-30T06:37:32.503Z,99342.81
2017-10-30T06:40:09.356Z,99360.43
2017-10-30T06:42:46.443Z,99352.99
2017-10-30T06:45:23.234Z,99368.88
2017-10-30T06:48:00.769Z,99370.22
2017-10-30T06:50:37.835Z,99384.03
2017-10-30T06:53:19.165Z,99369.49
2017-10-30T06:55:55.833Z,99378.61
2017-10-30T06:58:32.994Z,99391.70
2017-10-30T07:01:09.910Z,99401.30
2017-10-30T07:03:48.890Z,99407.13
2017-10-30T07:06:25.320Z,99433.37
2017-10-30T07:09:06.532Z,99426.84
2017-10-30T07:11:43.363Z,99426.81
2017-10-30T07:14:20.813Z,99436.84
2017-10-30T07:16:58.353Z,99445.56
2017-10-30T07:19:37.099Z,99452.30
2017-10-30T07:22:14.288Z,99454.68
2017-10-30T07:24:51.603Z,99460.05
2017-10-30T07:27:28.256Z,99468.11
2017-10-30T07:30:04.546Z,99477.05
2017-10-30T07:32:41.036Z,99465.36
2017-10-30T07:35:18.286Z,99474.89
2017-10-30T07:37:54.666Z,99467.31
2017-10-30T07:40:31.635Z,99468.05
2017-10-30T07:43:08.545Z,99477.58
2017-10-30T07:45:45.781Z,99480.92
2017-10-30T07:48:22.834Z,99476.47
2017-10-30T07:51:05.372Z,99478.94
2017-10-30T07:53:56.603Z,99472.13
2017-10-30T07:56:25.719Z,99489.03
2017-10-30T07:59:02.128Z,99490.74
2017-10-30T08:01:38.425Z,99497.77
2017-10-30T08:04:15.509Z,99495.22
2017-10-30T08:06:53.199Z,99480.95
2017-10-30T08:09:30.171Z,99480.23
2017-10-30T08:12:07.180Z,99490.84
2017-10-30T08:14:44.049Z,99489.05
2017-10-30T08:17:21.114Z,99478.01
2017-10-30T08:19:58.411Z,99483.59
2017-10-30T08:22:29.511Z,99485.88
2017-10-30T08:25:05.803Z,99483.59
2017-10-30T08:27:42.465Z,99485.63
2017-10-30T08:30:19.351Z,99492.71
2017-10-30T08:32:56.267Z,99501.94
2017-10-30T08:35:32.976Z,99486.44
2017-10-30T08:38:09.061Z,99509.58
2017-10-30T08:40:46.360Z,99524.29
2017-10-30T08:43:22.970Z,99509.80
2017-10-30T08:45:59.189Z,99522.50
2017-10-30T08:48:37.734Z,99518.95
2017-10-30T08:51:14.215Z,99533.91
2017-10-30T08:53:52.624Z,99537.79
2017-10-30T08:56:29.299Z,99536.20
2017-10-30T08:59:06.385Z,99554.47
2017-10-30T09:01:43.016Z,99561.98
2017-10-30T09:04:19.980Z,99561.90
2017-10-30T09:06:56.381Z,99579.16
2017-10-30T09:09:38.775Z,99573.44
2017-10-30T09:12:15.834Z,99590.61
2017-10-30T09:14:53.019Z,99589.58
2017-10-30T09:17:29.247Z,99594.95
2017-10-30T09:20:06.928Z,99588.22
2017-10-30T09:22:43.364Z,99586.11
2017-10-30T09:25:20.358Z,99578.66
2017-10-30T09:27:57.333Z,99590.37
2017-10-30T09:30:36.485Z,99596.73
2017-10-30T09:33:13.051Z,99596.69
2017-10-30T09:35:50.764Z,99599.33
2017-10-30T09:38:27.843Z,99609.29
2017-10-30T09:41:07.166Z,99616.56
2017-10-30T09:43:44.275Z,99617.72
2017-10-30T09:46:21.855Z,99618.52
2017-10-30T09:48:58.554Z,99628.49
2017-10-30T09:51:35.414Z,99626.69
2017-10-30T09:54:12.613Z,99645.25
2017-10-30T09:56:42.550Z,99640.17
2017-10-30T09:59:21.437Z,99637.66
2017-10-30T10:01:57.756Z,99647.66
2017-10-30T10:04:34.438Z,99662.22
2017-10-30T10:07:11.242Z,99653.32
2017-10-30T10:09:49.628Z,99648.63
2017-10-30T10:12:27.274Z,99654.44
2017-10-30T10:15:04.247Z,99655.44
2017-10-30T10:17:42.426Z,99653.64
2017-10-30T10:20:18.792Z,99667.67
2017-10-30T10:22:56.793Z,99657.26
2017-10-30T10:25:33.611Z,99668.55
2017-10-30T10:28:11.918Z,99668.55
2017-10-30T10:30:48.832Z,99658.16
2017-10-30T10:33:29.600Z,99656.38
2017-10-30T10:36:06.195Z,99656.61
2017-10-30T10:38:42.792Z,99665.75
2017-10-30T10:41:19.261Z,99670.94
2017-10-30T10:43:57.025Z,99670.48
2017-10-30T10:46:33.742Z,99676.34
2017-10-30T10:49:10.571Z,99667.83
2017-10-30T10:51:47.585Z,99668.70
2017-10-30T10:54:27.841Z,99661.30
2017-10-30T10:57:05.025Z,99669.61
2017-10-30T10:59:43.430Z,99674.08
2017-10-30T11:02:20.183Z,99667.84
2017-10-30T11:04:57.223Z,99674.34
2017-10-30T11:07:33.861Z,99677.50
2017-10-30T11:10:10.563Z,99689.03
2017-10-30T11:12:47.238Z,99689.82
2017-10-30T11:15:24.557Z,99696.67
2017-10-30T11:18:01.452Z,99691.39
2017-10-30T11:20:43.097Z,99690.72
2017-10-30T11:23:19.927Z,99680.83
2017-10-30T11:25:57.412Z,99686.81
2017-10-30T11:28:34.126Z,99696.77
2017-10-30T11:31:10.877Z,99670.52
2017-10-30T11:33:48.104Z,99700.61
2017-10-30T11:36:30.460Z,99722.44
2017-10-30T11:39:08.277Z,99709.90
2017-10-30T11:41:45.064Z,99717.63
2017-10-30T11:44:22.811Z,99721.88
2017-10-30T11:46:59.441Z,99725.05
2017-10-30T11:49:36.470Z,99732.53
2017-10-30T11:52:13.632Z,99749.56
2017-10-30T11:54:42.580Z,99744.13
2017-10-30T11:57:20.064Z,99752.53
2017-10-30T11:59:56.919Z,99754.22
2017-10-30T12:02:33.946Z,99763.27
2017-10-30T12:05:11.100Z,99759.23
2017-10-30T12:07:50.173Z,99760.62
2017-10-30T12:10:26.595Z,99750.96
2017-10-30T12:13:02.860Z,99755.27
2017-10-30T12:15:39.309Z,99762.59
2017-10-30T12:18:17.222Z,99755.34
2017-10-30T12:20:53.392Z,99764.81
2017-10-30T12:23:30.422Z,99763.88
2017-10-30T12:26:06.944Z,99764.20
2017-10-30T12:28:44.781Z,99774.19
2017-10-30T12:31:21.638Z,99769.69
2017-10-30T12:33:59.245Z,99779.34
2017-10-30T12:36:35.571Z,99788.05
2017-10-30T12:39:13.361Z,99778.49
2017-10-30T12:41:49.682Z,99788.20
2017-10-30T12:44:27.028Z,99796.86
2017-10-30T12:47:04.227Z,99805.72
2017-10-30T12:49:41.044Z,99801.80
2017-10-30T12:52:18.035Z,99810.27
2017-10-30T12:54:54.722Z,99797.95
2017-10-30T12:57:31.444Z,99799.80
2017-10-30T13:00:08.752Z,99802.84
2017-10-30T13:02:45.575Z,99825.37
2017-10-30T13:05:25.582Z,99815.61
2017-10-30T13:08:02.747Z,99819.65
2017-10-30T13:10:39.592Z,99827.83
2017-10-30T13:13:16.418Z,99829.91
2017-10-30T13:15:55.201Z,99829.70
2017-10-30T13:21:19.621Z,99841.66
2017-10-30T13:23:55.838Z,99839.57
2017-10-30T13:26:32.710Z,99846.13
2017-10-30T13:29:11.165Z,99854.52
2017-10-30T13:31:50.466Z,99844.83
2017-10-30T13:34:27.037Z,99849.79
2017-10-30T13:37:03.812Z,99846.82
2017-10-30T13:39:40.646Z,99872.75
2017-10-30T13:42:19.868Z,99876.20
2017-10-30T13:44:56.827Z,99865.66
2017-10-30T13:47:39.988Z,99875.61
2017-10-30T13:50:21.300Z,99884.40
2017-10-30T13:52:58.401Z,99883.20
2017-10-30T13:55:27.403Z,99897.56
2017-10-30T13:58:03.734Z,99883.84
2017-10-30T14:00:40.677Z,99899.25
2017-10-30T14:03:21.655Z,99893.14
2017-10-30T14:05:59.706Z,99922.64
2017-10-30T14:08:36.784Z,99911.70
2017-10-30T14:11:13.514Z,99929.23
2017-10-30T14:13:49.910Z,99935.27
2017-10-30T14:16:26.862Z,99938.69
2017-10-30T14:19:04.016Z,99943.74
2017-10-30T14:21:41.029Z,99949.52
2017-10-30T14:24:17.939Z,99943.73
2017-10-30T14:26:56.218Z,99943.33
2017-10-30T14:29:33.382Z,99949.83
2017-10-30T14:32:10.534Z,99964.45
2017-10-30T14:34:48.638Z,99959.84
2017-10-30T14:37:25.446Z,99966.52
2017-10-30T14:40:02.120Z,99961.74
2017-10-30T14:42:38.519Z,99976.59
2017-10-30T14:45:14.815Z,99984.31
2017-10-30T14:47:51.578Z,99995.73
2017-10-30T14:50:28.545Z,99994.52
2017-10-30T14:53:05.297Z,100007.41
2017-10-30T14:55:43.666Z,100015.90
2017-10-30T14:58:20.470Z,100028.67
2017-10-30T15:00:57.602Z,100024.04
2017-10-30T15:03:33.923Z,100019.13
2017-10-30T15:06:10.835Z,100037.33
2017-10-30T15:08:47.097Z,100028.16
2017-10-30T15:11:24.342Z,100030.72
2017-10-30T15:14:01.619Z,100049.81
2017-10-30T15:16:38.356Z,100061.81
2017-10-30T15:19:15.617Z,100062.20
2017-10-30T15:21:54.255Z,100065.20
2017-10-30T15:24:30.841Z,100063.20
2017-10-30T15:27:07.690Z,100076.83
2017-10-30T15:29:46.642Z,100079.36
2017-10-30T15:32:23.496Z,100085.30
2017-10-30T15:35:00.499Z,100096.34
2017-10-30T15:37:37.215Z,100093.84
2017-10-30T15:40:14.434Z,100102.80
2017-10-30T15:42:51.338Z,100110.41
2017-10-30T15:45:28.407Z,100112.97
2017-10-30T15:48:06.306Z,100122.30
2017-10-30T15:50:43.031Z,100127.88
2017-10-30T15:53:21.631Z,100140.19
2017-10-30T15:55:50.443Z,100146.52
2017-10-30T15:58:28.369Z,100148.19
2017-10-30T16:01:05.512Z,100156.70
2017-10-30T16:03:42.586Z,100150.80
2017-10-30T16:06:19.713Z,100160.97
2017-10-30T16:08:57.243Z,100168.16
2017-10-30T16:11:33.990Z,100174.94
2017-10-30T16:14:12.180Z,100182.58
2017-10-30T16:16:49.839Z,100180.47
2017-10-30T16:19:27.854Z,100180.91
2017-10-30T16:22:04.741Z,100191.47
2017-10-30T16:24:42.610Z,100190.66
2017-10-30T16:27:19.029Z,100199.55
2017-10-30T16:29:57.867Z,100201.25
2017-10-30T16:32:34.579Z,100205.05
2017-10-30T16:35:12.035Z,100201.68
2017-10-30T16:37:50.811Z,100213.09
2017-10-30T16:40:29.238Z,100216.92
2017-10-30T16:43:06.134Z,100212.67
2017-10-30T16:45:45.863Z,100217.35
2017-10-30T16:48:22.715Z,100236.78
2017-10-30T16:50:59.588Z,100230.03
2017-10-30T16:53:35.957Z,100231.30
2017-10-30T16:56:12.387Z,100240.59
2017-10-30T16:58:48.875Z,100238.04
2017-10-30T17:01:26.058Z,100248.62
2017-10-30T17:04:02.915Z,100246.94
2017-10-30T17:06:39.712Z,100246.06
2017-10-30T17:09:17.333Z,100255.78
2017-10-30T17:11:57.425Z,100258.74
2017-10-30T17:14:34.598Z,100251.98
2017-10-30T17:17:11.419Z,100252.83
2017-10-30T17:19:48.323Z,100259.16
2017-10-30T17:22:26.086Z,100261.70
2017-10-30T17:25:03.028Z,100268.46
2017-10-30T17:27:40.779Z,100272.27
2017-10-30T17:30:17.529Z,100273.08
2017-10-30T17:32:55.173Z,100276.42
2017-10-30T17:35:32.259Z,100281.91
2017-10-30T17:38:09.151Z,100280.64
2017-10-30T17:40:51.044Z,100285.70
2017-10-30T17:43:29.090Z,100288.66
2017-10-30T17:46:14.766Z,100298.37
2017-10-30T17:48:52.383Z,100297.48
2017-10-30T17:51:28.917Z,100302.55
2017-10-30T17:54:06.562Z,100300.42
2017-10-30T17:56:35.472Z,100310.52
2017-10-30T17:59:14.585Z,100308.39
2017-10-30T18:01:51.188Z,100310.48
2017-10-30T18:04:30.507Z,100317.61
2017-10-30T18:07:06.964Z,100316.34
2017-10-30T18:09:43.830Z,100318.02
2017-10-30T18:12:20.574Z,100321.80
2017-10-30T18:14:58.026Z,100325.58
2017-10-30T18:17:35.016Z,100332.27
2017-10-30T18:20:11.888Z,100335.22
2017-10-30T18:22:49.762Z,100334.80
2017-10-30T18:25:27.467Z,100336.88
2017-10-30T18:28:04.806Z,100337.59
2017-10-30T18:30:44.056Z,100343.94
2017-10-30T18:33:21.253Z,100344.39
2017-10-30T18:35:58.237Z,100343.16
2017-10-30T18:38:35.218Z,100349.01
2017-10-30T18:41:12.992Z,100353.58
2017-10-30T18:43:49.516Z,100356.54
2017-10-30T18:46:26.386Z,100359.81
2017-10-30T18:49:02.931Z,100363.21
2017-10-30T18:51:42.914Z,100365.69
2017-10-30T18:54:19.308Z,100366.95
2017-10-30T18:56:55.726Z,100371.59
2017-10-30T18:59:34.246Z,100370.72
2017-10-30T19:02:05.693Z,100378.73
2017-10-30T19:04:34.640Z,100379.13
2017-10-30T19:07:12.404Z,100379.99
2017-10-30T19:09:49.143Z,100377.45
2017-10-30T19:12:28.725Z,100381.23
2017-10-30T19:15:05.464Z,100383.23
2017-10-30T19:17:42.578Z,100382.39
2017-10-30T19:20:19.302Z,100376.55
2017-10-30T19:22:57.082Z,100382.94
2017-10-30T19:25:33.752Z,100386.35
2017-10-30T19:28:13.375Z,100378.33
2017-10-30T19:30:50.151Z,100379.19
2017-10-30T19:33:28.062Z,100379.61
2017-10-30T19:36:04.395Z,100379.18
2017-10-30T19:38:41.574Z,100380.05
2017-10-30T19:41:18.247Z,100381.34
2017-10-30T19:43:58.769Z,100382.14
2017-10-30T19:46:35.684Z,100383.80
2017-10-30T19:49:12.862Z,100383.79
2017-10-30T19:51:49.928Z,100389.20
2017-10-30T19:54:31.043Z,100385.05
2017-10-30T19:57:00.009Z,100398.53
2017-10-30T19:59:36.739Z,100393.90
2017-10-30T20:02:13.230Z,100390.08
2017-10-30T20:04:50.998Z,100390.44
2017-10-30T20:07:33.275Z,100397.23
2017-10-30T20:10:16.203Z,100394.66
2017-10-30T20:12:53.439Z,100391.36
2017-10-30T20:15:30.624Z,100404.77
2017-10-30T20:18:11.714Z,100398.44
2017-10-30T20:20:48.958Z,100398.85
2017-10-30T20:23:27.657Z,100398.80
2017-10-30T20:26:04.863Z,100401.80
2017-10-30T20:28:41.540Z,100396.30
2017-10-30T20:31:24.251Z,100399.77
2017-10-30T20:34:01.283Z,100390.97
2017-10-30T20:36:39.212Z,100389.27
2017-10-30T20:39:15.546Z,100396.48
2017-10-30T20:41:52.765Z,100404.09
2017-10-30T20:44:29.719Z,100401.12
2017-10-30T20:47:06.751Z,100408.30
2017-10-30T20:49:43.596Z,100417.18
2017-10-30T20:52:21.731Z,100406.68
2017-10-30T20:54:58.598Z,100412.63
2017-10-30T20:57:35.819Z,100409.24
2017-10-30T21:00:12.291Z,100412.16
2017-10-30T21:02:41.281Z,100416.84
2017-10-30T21:05:10.230Z,100403.80
2017-10-30T21:07:46.831Z,100412.23
2017-10-30T21:10:23.661Z,100408.05
2017-10-30T21:13:01.627Z,100416.49
2017-10-30T21:15:43.337Z,100418.11
2017-10-30T21:18:20.643Z,100418.97
2017-10-30T21:20:57.323Z,100420.61
2017-10-30T21:23:35.988Z,100424.84
2017-10-30T21:26:13.073Z,100425.23
2017-10-30T21:28:52.032Z,100427.72
2017-10-30T21:31:30.428Z,100433.66
2017-10-30T21:34:07.991Z,100437.80
2017-10-30T21:36:44.380Z,100446.62
2017-10-30T21:39:21.225Z,100447.03
2017-10-30T21:41:58.037Z,100444.92
2017-10-30T21:44:34.506Z,100445.82
2017-10-30T21:47:11.656Z,100454.25
2017-10-30T21:49:50.168Z,100456.30
2017-10-30T21:52:26.523Z,100457.05
2017-10-30T21:55:04.574Z,100453.72
2017-10-30T21:57:41.491Z,100460.11
2017-10-30T22:00:19.101Z,100458.84
2017-10-30T22:02:56.426Z,100462.61
2017-10-30T22:05:36.244Z,100459.13
2017-10-30T22:08:12.928Z,100462.45
2017-10-30T22:10:50.641Z,100462.05
2017-10-30T22:13:28.302Z,100459.47
2017-10-30T22:16:04.993Z,100466.66
2017-10-30T22:18:41.227Z,100465.36
2017-10-30T22:21:17.759Z,100468.38
2017-10-30T22:23:54.798Z,100461.20
2017-10-30T22:26:32.291Z,100459.94
2017-10-30T22:29:09.158Z,100476.40
2017-10-30T22:31:53.006Z,100478.41
2017-10-30T22:34:29.572Z,100475.27
2017-10-30T22:37:07.411Z,100483.56
2017-10-30T22:39:44.370Z,100484.96
2017-10-30T22:42:21.274Z,100495.54
2017-10-30T22:45:00.026Z,100495.02
2017-10-30T22:47:37.088Z,100505.37
2017-10-30T22:50:14.440Z,100509.09
2017-10-30T22:52:51.017Z,100506.97
2017-10-30T22:55:29.841Z,100512.13
2017-10-30T22:58:07.966Z,100509.67
2017-10-30T23:00:44.464Z,100506.30
2017-10-30T23:03:22.630Z,100512.64
2017-10-30T23:05:58.970Z,100521.01
2017-10-30T23:08:36.480Z,100520.27
2017-10-30T23:11:13.107Z,100524.83
2017-10-30T23:19:42.487Z,100542.27
2017-10-30T23:22:19.492Z,100542.23
2017-10-30T23:24:56.044Z,100551.90
2017-10-30T23:27:33.013Z,100551.82
2017-10-30T23:30:10.817Z,100550.55
2017-10-30T23:32:53.621Z,100555.22
2017-10-30T23:35:31.536Z,100552.41
2017-10-30T23:38:07.805Z,100557.23
2017-10-30T23:40:47.748Z,100554.62
2017-10-30T23:43:24.387Z,100553.70
2017-10-30T23:46:07.071Z,100550.11
2017-10-30T23:48:44.043Z,100552.37
2017-10-30T23:51:20.779Z,100560.94
2017-10-30T23:53:57.300Z,100561.03
2017-10-30T23:56:26.451Z,100562.53
2017-10-30T23:59:04.893Z,100559.14
